sensor_id;sensor_type;location;lat;lon;timestamp;temperature;humidity
6098;DHT22;3077;50.922;6.584;2023-02-28T00:00:23;1.90;99.90
6098;DHT22;3077;50.922;6.584;2023-02-28T00:02:49;1.80;99.90
6098;DHT22;3077;50.922;6.584;2023-02-28T00:05:17;1.90;99.90
6098;DHT22;3077;50.922;6.584;2023-02-28T00:07:43;1.80;99.90
6098;DHT22;3077;50.922;6.584;2023-02-28T00:10:15;1.70;99.90
6098;DHT22;3077;50.922;6.584;2023-02-28T00:12:44;1.60;99.90
6098;DHT22;3077;50.922;6.584;2023-02-28T00:15:10;1.60;99.90
6098;DHT22;3077;50.922;6.584;2023-02-28T00:17:37;1.50;99.90
6098;DHT22;3077;50.922;6.584;2023-02-28T00:20:04;1.50;99.90
6098;DHT22;3077;50.922;6.584;2023-02-28T00:22:32;1.40;99.90
6098;DHT22;3077;50.922;6.584;2023-02-28T00:24:57;1.40;99.90
6098;DHT22;3077;50.922;6.584;2023-02-28T00:27:23;1.40;99.90
6098;DHT22;3077;50.922;6.584;2023-02-28T00:29:48;1.30;99.90
6098;DHT22;3077;50.922;6.584;2023-02-28T00:32:14;1.30;99.90
6098;DHT22;3077;50.922;6.584;2023-02-28T00:34:40;1.30;99.90
6098;DHT22;3077;50.922;6.584;2023-02-28T00:37:07;1.20;99.90
6098;DHT22;3077;50.922;6.584;2023-02-28T00:39:35;1.30;99.90
6098;DHT22;3077;50.922;6.584;2023-02-28T00:42:01;1.30;99.90
6098;DHT22;3077;50.922;6.584;2023-02-28T00:44:27;1.20;99.90
6098;DHT22;3077;50.922;6.584;2023-02-28T00:46:53;1.30;99.90
6098;DHT22;3077;50.922;6.584;2023-02-28T00:49:20;1.20;99.90
6098;DHT22;3077;50.922;6.584;2023-02-28T00:51:46;1.20;99.90
6098;DHT22;3077;50.922;6.584;2023-02-28T00:54:11;1.20;99.90
6098;DHT22;3077;50.922;6.584;2023-02-28T00:56:37;1.20;99.90
6098;DHT22;3077;50.922;6.584;2023-02-28T00:59:03;1.10;99.90
6098;DHT22;3077;50.922;6.584;2023-02-28T01:01:28;1.10;99.90
6098;DHT22;3077;50.922;6.584;2023-02-28T01:03:54;1.10;99.90
6098;DHT22;3077;50.922;6.584;2023-02-28T01:06:19;1.00;99.90
6098;DHT22;3077;50.922;6.584;2023-02-28T01:08:45;1.00;99.90
6098;DHT22;3077;50.922;6.584;2023-02-28T01:11:13;1.00;99.90
6098;DHT22;3077;50.922;6.584;2023-02-28T01:13:40;1.00;99.90
6098;DHT22;3077;50.922;6.584;2023-02-28T01:16:06;1.00;99.90
6098;DHT22;3077;50.922;6.584;2023-02-28T01:18:32;0.90;99.90
6098;DHT22;3077;50.922;6.584;2023-02-28T01:20:57;0.90;99.90
6098;DHT22;3077;50.922;6.584;2023-02-28T01:23:23;0.90;99.90
6098;DHT22;3077;50.922;6.584;2023-02-28T01:25:50;0.80;99.90
6098;DHT22;3077;50.922;6.584;2023-02-28T01:28:16;0.80;99.90
6098;DHT22;3077;50.922;6.584;2023-02-28T01:30:41;0.80;99.90
6098;DHT22;3077;50.922;6.584;2023-02-28T01:33:07;0.80;99.90
6098;DHT22;3077;50.922;6.584;2023-02-28T01:35:34;0.80;99.90
6098;DHT22;3077;50.922;6.584;2023-02-28T01:37:59;0.80;99.90
6098;DHT22;3077;50.922;6.584;2023-02-28T01:40:25;0.80;99.90
6098;DHT22;3077;50.922;6.584;2023-02-28T01:42:50;0.70;99.90
6098;DHT22;3077;50.922;6.584;2023-02-28T01:45:29;0.70;99.90
6098;DHT22;3077;50.922;6.584;2023-02-28T01:48:01;0.70;99.90
6098;DHT22;3077;50.922;6.584;2023-02-28T01:50:30;0.80;99.90
6098;DHT22;3077;50.922;6.584;2023-02-28T01:52:59;0.70;99.90
6098;DHT22;3077;50.922;6.584;2023-02-28T01:55:28;0.70;99.90
6098;DHT22;3077;50.922;6.584;2023-02-28T01:57:57;0.70;99.90
6098;DHT22;3077;50.922;6.584;2023-02-28T02:00:26;0.70;99.90
6098;DHT22;3077;50.922;6.584;2023-02-28T02:02:55;0.60;99.90
6098;DHT22;3077;50.922;6.584;2023-02-28T02:05:33;0.60;99.90
6098;DHT22;3077;50.922;6.584;2023-02-28T02:08:05;0.60;99.90
6098;DHT22;3077;50.922;6.584;2023-02-28T02:10:35;0.60;99.90
6098;DHT22;3077;50.922;6.584;2023-02-28T02:13:29;0.60;99.90
6098;DHT22;3077;50.922;6.584;2023-02-28T02:34:01;0.50;99.90
6098;DHT22;3077;50.922;6.584;2023-02-28T02:36:42;0.40;99.90
6098;DHT22;3077;50.922;6.584;2023-02-28T02:39:21;0.40;99.90
6098;DHT22;3077;50.922;6.584;2023-02-28T02:41:54;0.40;99.90
6098;DHT22;3077;50.922;6.584;2023-02-28T02:44:43;0.50;99.90
6098;DHT22;3077;50.922;6.584;2023-02-28T02:47:15;0.50;99.90
6098;DHT22;3077;50.922;6.584;2023-02-28T02:49:47;0.40;99.90
6098;DHT22;3077;50.922;6.584;2023-02-28T02:52:18;0.50;99.90
6098;DHT22;3077;50.922;6.584;2023-02-28T02:54:48;0.50;99.90
6098;DHT22;3077;50.922;6.584;2023-02-28T02:57:25;0.50;99.90
6098;DHT22;3077;50.922;6.584;2023-02-28T02:59:53;0.60;99.90
6098;DHT22;3077;50.922;6.584;2023-02-28T03:02:21;0.60;99.90
6098;DHT22;3077;50.922;6.584;2023-02-28T03:04:52;0.60;99.90
6098;DHT22;3077;50.922;6.584;2023-02-28T03:07:18;0.60;99.90
6098;DHT22;3077;50.922;6.584;2023-02-28T03:09:54;0.50;99.90
6098;DHT22;3077;50.922;6.584;2023-02-28T03:12:20;0.50;99.90
6098;DHT22;3077;50.922;6.584;2023-02-28T03:15:11;0.50;99.90
6098;DHT22;3077;50.922;6.584;2023-02-28T03:18:01;0.50;99.90
6098;DHT22;3077;50.922;6.584;2023-02-28T03:23:10;0.50;99.90
6098;DHT22;3077;50.922;6.584;2023-02-28T03:28:20;0.50;99.90
6098;DHT22;3077;50.922;6.584;2023-02-28T03:30:54;0.50;99.90
6098;DHT22;3077;50.922;6.584;2023-02-28T03:33:30;0.40;99.90
6098;DHT22;3077;50.922;6.584;2023-02-28T03:36:02;0.40;99.90
6098;DHT22;3077;50.922;6.584;2023-02-28T03:41:12;0.40;99.90
6098;DHT22;3077;50.922;6.584;2023-02-28T03:43:43;0.30;99.90
6098;DHT22;3077;50.922;6.584;2023-02-28T03:46:13;0.30;99.90
6098;DHT22;3077;50.922;6.584;2023-02-28T03:48:44;0.20;99.90
6098;DHT22;3077;50.922;6.584;2023-02-28T03:51:15;0.30;99.90
6098;DHT22;3077;50.922;6.584;2023-02-28T03:53:54;0.20;99.90
6098;DHT22;3077;50.922;6.584;2023-02-28T03:56:33;0.20;99.90
6098;DHT22;3077;50.922;6.584;2023-02-28T03:59:10;0.20;99.90
6098;DHT22;3077;50.922;6.584;2023-02-28T04:01:44;0.10;99.90
6098;DHT22;3077;50.922;6.584;2023-02-28T04:04:11;0.10;99.90
6098;DHT22;3077;50.922;6.584;2023-02-28T04:06:37;0.00;99.90
6098;DHT22;3077;50.922;6.584;2023-02-28T04:09:05;0.00;99.90
6098;DHT22;3077;50.922;6.584;2023-02-28T04:14:10;0.00;99.90
6098;DHT22;3077;50.922;6.584;2023-02-28T04:16:39;0.00;99.90
6098;DHT22;3077;50.922;6.584;2023-02-28T04:19:06;-0.10;99.90
6098;DHT22;3077;50.922;6.584;2023-02-28T04:21:37;-0.10;99.90
6098;DHT22;3077;50.922;6.584;2023-02-28T04:24:05;-0.10;99.90
6098;DHT22;3077;50.922;6.584;2023-02-28T04:26:31;-0.10;99.90
6098;DHT22;3077;50.922;6.584;2023-02-28T04:28:57;-0.20;99.90
6098;DHT22;3077;50.922;6.584;2023-02-28T04:31:23;-0.20;99.90
6098;DHT22;3077;50.922;6.584;2023-02-28T04:33:49;-0.20;99.90
6098;DHT22;3077;50.922;6.584;2023-02-28T04:36:15;-0.30;99.90
6098;DHT22;3077;50.922;6.584;2023-02-28T04:38:43;-0.30;99.90
6098;DHT22;3077;50.922;6.584;2023-02-28T04:41:08;-0.30;99.90
6098;DHT22;3077;50.922;6.584;2023-02-28T04:43:34;-0.30;99.90
6098;DHT22;3077;50.922;6.584;2023-02-28T04:46:02;-0.30;99.90
6098;DHT22;3077;50.922;6.584;2023-02-28T04:48:30;-0.30;99.90
6098;DHT22;3077;50.922;6.584;2023-02-28T04:51:00;-0.30;99.90
6098;DHT22;3077;50.922;6.584;2023-02-28T04:53:27;-0.30;99.90
6098;DHT22;3077;50.922;6.584;2023-02-28T04:55:54;-0.30;99.90
6098;DHT22;3077;50.922;6.584;2023-02-28T04:58:20;-0.40;99.90
6098;DHT22;3077;50.922;6.584;2023-02-28T05:00:48;-0.40;99.90
6098;DHT22;3077;50.922;6.584;2023-02-28T05:03:14;-0.40;99.90
6098;DHT22;3077;50.922;6.584;2023-02-28T05:05:39;-0.40;99.90
6098;DHT22;3077;50.922;6.584;2023-02-28T05:08:05;-0.40;99.90
6098;DHT22;3077;50.922;6.584;2023-02-28T05:10:31;-0.40;99.90
6098;DHT22;3077;50.922;6.584;2023-02-28T05:12:57;-0.40;99.90
6098;DHT22;3077;50.922;6.584;2023-02-28T05:15:24;-0.40;99.90
6098;DHT22;3077;50.922;6.584;2023-02-28T05:17:49;-0.40;99.90
6098;DHT22;3077;50.922;6.584;2023-02-28T05:20:15;-0.40;99.90
6098;DHT22;3077;50.922;6.584;2023-02-28T05:22:41;-0.40;99.90
6098;DHT22;3077;50.922;6.584;2023-02-28T05:25:10;-0.40;99.90
6098;DHT22;3077;50.922;6.584;2023-02-28T05:27:37;-0.40;99.90
6098;DHT22;3077;50.922;6.584;2023-02-28T05:30:03;-0.50;99.90
6098;DHT22;3077;50.922;6.584;2023-02-28T05:32:29;-0.40;99.90
6098;DHT22;3077;50.922;6.584;2023-02-28T05:34:55;-0.50;99.90
6098;DHT22;3077;50.922;6.584;2023-02-28T05:37:20;-0.50;99.90
6098;DHT22;3077;50.922;6.584;2023-02-28T05:39:46;-0.50;99.90
6098;DHT22;3077;50.922;6.584;2023-02-28T05:42:11;-0.50;99.90
6098;DHT22;3077;50.922;6.584;2023-02-28T05:44:37;-0.60;99.90
6098;DHT22;3077;50.922;6.584;2023-02-28T05:47:03;-0.60;99.90
6098;DHT22;3077;50.922;6.584;2023-02-28T05:49:28;-0.60;99.90
6098;DHT22;3077;50.922;6.584;2023-02-28T05:51:54;-0.60;99.90
6098;DHT22;3077;50.922;6.584;2023-02-28T05:54:20;-0.60;99.90
6098;DHT22;3077;50.922;6.584;2023-02-28T05:56:45;-0.70;99.90
6098;DHT22;3077;50.922;6.584;2023-02-28T05:59:12;-0.70;99.90
6098;DHT22;3077;50.922;6.584;2023-02-28T06:01:40;-0.70;99.90
6098;DHT22;3077;50.922;6.584;2023-02-28T06:04:09;-0.60;99.90
6098;DHT22;3077;50.922;6.584;2023-02-28T06:06:35;-0.70;99.90
6098;DHT22;3077;50.922;6.584;2023-02-28T06:09:05;-0.70;99.90
6098;DHT22;3077;50.922;6.584;2023-02-28T06:11:31;-0.80;99.90
6098;DHT22;3077;50.922;6.584;2023-02-28T06:13:57;-0.80;99.90
6098;DHT22;3077;50.922;6.584;2023-02-28T06:16:25;-0.80;99.90
6098;DHT22;3077;50.922;6.584;2023-02-28T06:18:51;-0.80;99.90
6098;DHT22;3077;50.922;6.584;2023-02-28T06:21:18;-0.80;99.90
6098;DHT22;3077;50.922;6.584;2023-02-28T06:23:43;-0.80;99.90
6098;DHT22;3077;50.922;6.584;2023-02-28T06:26:09;-0.80;99.90
6098;DHT22;3077;50.922;6.584;2023-02-28T06:28:35;-0.90;99.90
6098;DHT22;3077;50.922;6.584;2023-02-28T06:31:09;-0.80;99.90
6098;DHT22;3077;50.922;6.584;2023-02-28T06:33:36;-0.90;99.90
6098;DHT22;3077;50.922;6.584;2023-02-28T06:36:02;-0.90;99.90
6098;DHT22;3077;50.922;6.584;2023-02-28T06:38:28;-0.90;99.90
6098;DHT22;3077;50.922;6.584;2023-02-28T06:40:55;-1.00;99.90
6098;DHT22;3077;50.922;6.584;2023-02-28T06:43:23;-0.90;99.90
6098;DHT22;3077;50.922;6.584;2023-02-28T06:45:49;-0.90;99.90
6098;DHT22;3077;50.922;6.584;2023-02-28T06:48:15;-0.90;99.90
6098;DHT22;3077;50.922;6.584;2023-02-28T06:50:40;-0.80;99.90
6098;DHT22;3077;50.922;6.584;2023-02-28T06:53:06;-0.80;99.90
6098;DHT22;3077;50.922;6.584;2023-02-28T06:55:31;-0.80;99.90
6098;DHT22;3077;50.922;6.584;2023-02-28T06:57:57;-0.70;99.90
6098;DHT22;3077;50.922;6.584;2023-02-28T07:00:23;-0.70;99.90
6098;DHT22;3077;50.922;6.584;2023-02-28T07:02:50;-0.70;99.90
6098;DHT22;3077;50.922;6.584;2023-02-28T07:05:16;-0.70;99.90
6098;DHT22;3077;50.922;6.584;2023-02-28T07:07:41;-0.60;99.90
6098;DHT22;3077;50.922;6.584;2023-02-28T07:10:12;-0.60;99.90
6098;DHT22;3077;50.922;6.584;2023-02-28T07:12:39;-0.50;99.90
6098;DHT22;3077;50.922;6.584;2023-02-28T07:15:05;-0.40;99.90
6098;DHT22;3077;50.922;6.584;2023-02-28T07:17:31;-0.40;99.90
6098;DHT22;3077;50.922;6.584;2023-02-28T07:19:57;-0.40;99.90
6098;DHT22;3077;50.922;6.584;2023-02-28T07:22:22;-0.30;99.90
6098;DHT22;3077;50.922;6.584;2023-02-28T07:24:48;-0.30;99.90
6098;DHT22;3077;50.922;6.584;2023-02-28T07:27:14;-0.30;99.90
6098;DHT22;3077;50.922;6.584;2023-02-28T07:29:49;-0.20;99.90
6098;DHT22;3077;50.922;6.584;2023-02-28T07:32:15;-0.10;99.90
6098;DHT22;3077;50.922;6.584;2023-02-28T07:34:40;0.00;99.90
6098;DHT22;3077;50.922;6.584;2023-02-28T07:37:06;0.10;99.90
6098;DHT22;3077;50.922;6.584;2023-02-28T07:39:31;0.10;99.90
6098;DHT22;3077;50.922;6.584;2023-02-28T07:41:57;0.20;99.90
6098;DHT22;3077;50.922;6.584;2023-02-28T07:44:25;0.40;99.90
6098;DHT22;3077;50.922;6.584;2023-02-28T07:46:50;0.50;99.90
6098;DHT22;3077;50.922;6.584;2023-02-28T07:49:16;0.50;99.90
6098;DHT22;3077;50.922;6.584;2023-02-28T07:51:41;0.60;99.90
6098;DHT22;3077;50.922;6.584;2023-02-28T07:54:07;0.70;99.90
6098;DHT22;3077;50.922;6.584;2023-02-28T07:56:33;0.70;99.90
6098;DHT22;3077;50.922;6.584;2023-02-28T07:58:58;1.30;99.90
6098;DHT22;3077;50.922;6.584;2023-02-28T08:01:24;0.90;99.90
6098;DHT22;3077;50.922;6.584;2023-02-28T08:03:50;1.00;99.90
6098;DHT22;3077;50.922;6.584;2023-02-28T08:06:21;1.10;99.90
6098;DHT22;3077;50.922;6.584;2023-02-28T08:08:47;1.20;99.90
6098;DHT22;3077;50.922;6.584;2023-02-28T08:11:14;1.20;99.90
6098;DHT22;3077;50.922;6.584;2023-02-28T08:13:40;1.30;99.90
6098;DHT22;3077;50.922;6.584;2023-02-28T08:16:07;1.40;99.90
6098;DHT22;3077;50.922;6.584;2023-02-28T08:18:33;1.50;99.90
6098;DHT22;3077;50.922;6.584;2023-02-28T08:20:59;1.60;99.90
6098;DHT22;3077;50.922;6.584;2023-02-28T08:23:25;1.70;99.90
6098;DHT22;3077;50.922;6.584;2023-02-28T08:25:55;1.80;99.90
6098;DHT22;3077;50.922;6.584;2023-02-28T08:28:21;1.90;99.90
6098;DHT22;3077;50.922;6.584;2023-02-28T08:30:46;1.90;99.90
6098;DHT22;3077;50.922;6.584;2023-02-28T08:33:12;2.00;99.90
6098;DHT22;3077;50.922;6.584;2023-02-28T08:35:38;2.10;99.90
6098;DHT22;3077;50.922;6.584;2023-02-28T08:38:03;2.20;99.90
6098;DHT22;3077;50.922;6.584;2023-02-28T08:40:29;2.30;99.90
6098;DHT22;3077;50.922;6.584;2023-02-28T08:42:54;2.30;99.90
6098;DHT22;3077;50.922;6.584;2023-02-28T08:45:20;2.40;99.90
6098;DHT22;3077;50.922;6.584;2023-02-28T08:47:46;2.50;99.90
6098;DHT22;3077;50.922;6.584;2023-02-28T08:50:11;2.70;99.90
6098;DHT22;3077;50.922;6.584;2023-02-28T08:52:42;2.70;99.90
6098;DHT22;3077;50.922;6.584;2023-02-28T08:55:08;2.80;99.90
6098;DHT22;3077;50.922;6.584;2023-02-28T08:57:35;2.90;99.90
6098;DHT22;3077;50.922;6.584;2023-02-28T09:00:00;3.00;99.90
6098;DHT22;3077;50.922;6.584;2023-02-28T09:02:30;3.20;99.90
6098;DHT22;3077;50.922;6.584;2023-02-28T09:04:56;3.30;99.90
6098;DHT22;3077;50.922;6.584;2023-02-28T09:07:22;3.30;97.10
6098;DHT22;3077;50.922;6.584;2023-02-28T09:09:47;3.40;96.90
6098;DHT22;3077;50.922;6.584;2023-02-28T09:12:22;3.50;96.60
6098;DHT22;3077;50.922;6.584;2023-02-28T09:14:49;3.60;94.00
6098;DHT22;3077;50.922;6.584;2023-02-28T09:17:14;3.70;91.80
6098;DHT22;3077;50.922;6.584;2023-02-28T09:19:40;3.80;91.00
6098;DHT22;3077;50.922;6.584;2023-02-28T09:22:06;3.90;88.00
6098;DHT22;3077;50.922;6.584;2023-02-28T09:24:31;3.90;82.50
6098;DHT22;3077;50.922;6.584;2023-02-28T09:26:57;3.90;75.90
6098;DHT22;3077;50.922;6.584;2023-02-28T09:29:23;4.00;76.40
6098;DHT22;3077;50.922;6.584;2023-02-28T09:31:48;4.00;75.10
6098;DHT22;3077;50.922;6.584;2023-02-28T09:34:14;4.00;72.40
6098;DHT22;3077;50.922;6.584;2023-02-28T09:36:41;4.10;74.70
6098;DHT22;3077;50.922;6.584;2023-02-28T09:39:06;4.10;91.30
6098;DHT22;3077;50.922;6.584;2023-02-28T09:41:38;4.30;73.40
6098;DHT22;3077;50.922;6.584;2023-02-28T09:44:12;4.40;65.80
6098;DHT22;3077;50.922;6.584;2023-02-28T09:46:41;4.50;63.80
6098;DHT22;3077;50.922;6.584;2023-02-28T09:49:15;4.30;80.60
6098;DHT22;3077;50.922;6.584;2023-02-28T09:54:29;4.60;57.30
6098;DHT22;3077;50.922;6.584;2023-02-28T10:00:18;4.70;59.60
6098;DHT22;3077;50.922;6.584;2023-02-28T10:03:05;4.90;56.20
6098;DHT22;3077;50.922;6.584;2023-02-28T10:05:37;4.90;52.80
6098;DHT22;3077;50.922;6.584;2023-02-28T10:10:50;5.00;49.30
6098;DHT22;3077;50.922;6.584;2023-02-28T10:13:34;5.00;47.50
6098;DHT22;3077;50.922;6.584;2023-02-28T10:16:14;5.10;49.90
6098;DHT22;3077;50.922;6.584;2023-02-28T10:18:51;5.20;47.60
6098;DHT22;3077;50.922;6.584;2023-02-28T10:21:22;5.30;48.00
6098;DHT22;3077;50.922;6.584;2023-02-28T10:23:52;5.40;49.30
6098;DHT22;3077;50.922;6.584;2023-02-28T10:26:21;5.50;45.00
6098;DHT22;3077;50.922;6.584;2023-02-28T10:28:51;5.50;41.70
6098;DHT22;3077;50.922;6.584;2023-02-28T10:31:19;5.60;45.30
6098;DHT22;3077;50.922;6.584;2023-02-28T10:33:45;5.70;42.90
6098;DHT22;3077;50.922;6.584;2023-02-28T10:36:16;5.70;43.70
6098;DHT22;3077;50.922;6.584;2023-02-28T10:38:44;5.80;42.20
6098;DHT22;3077;50.922;6.584;2023-02-28T10:41:16;6.00;41.00
6098;DHT22;3077;50.922;6.584;2023-02-28T10:43:43;6.10;39.90
6098;DHT22;3077;50.922;6.584;2023-02-28T10:48:42;6.40;39.00
6098;DHT22;3077;50.922;6.584;2023-02-28T10:51:15;6.50;38.40
6098;DHT22;3077;50.922;6.584;2023-02-28T10:53:49;6.70;36.20
6098;DHT22;3077;50.922;6.584;2023-02-28T10:56:21;6.80;35.70
6098;DHT22;3077;50.922;6.584;2023-02-28T11:03:58;6.80;29.90
6098;DHT22;3077;50.922;6.584;2023-02-28T11:06:33;6.90;32.20
6098;DHT22;3077;50.922;6.584;2023-02-28T11:09:03;7.00;43.40
6098;DHT22;3077;50.922;6.584;2023-02-28T11:11:31;7.20;29.70
6098;DHT22;3077;50.922;6.584;2023-02-28T11:14:20;7.20;28.40
6098;DHT22;3077;50.922;6.584;2023-02-28T11:16:47;7.20;29.00
6098;DHT22;3077;50.922;6.584;2023-02-28T11:19:28;7.30;28.60
6098;DHT22;3077;50.922;6.584;2023-02-28T11:22:01;7.40;29.10
6098;DHT22;3077;50.922;6.584;2023-02-28T11:24:28;7.50;30.10
6098;DHT22;3077;50.922;6.584;2023-02-28T11:26:56;7.60;27.50
6098;DHT22;3077;50.922;6.584;2023-02-28T11:29:25;7.70;29.20
6098;DHT22;3077;50.922;6.584;2023-02-28T11:32:19;7.80;27.50
6098;DHT22;3077;50.922;6.584;2023-02-28T11:34:47;7.90;27.00
6098;DHT22;3077;50.922;6.584;2023-02-28T11:37:24;8.00;24.30
6098;DHT22;3077;50.922;6.584;2023-02-28T11:39:50;8.00;26.30
6098;DHT22;3077;50.922;6.584;2023-02-28T11:48:02;8.60;24.50
6098;DHT22;3077;50.922;6.584;2023-02-28T11:56:44;11.20;16.60
6098;DHT22;3077;50.922;6.584;2023-02-28T12:04:53;13.00;8.50
6098;DHT22;3077;50.922;6.584;2023-02-28T12:10:25;13.40;5.60
6098;DHT22;3077;50.922;6.584;2023-02-28T12:12:58;13.60;3.60
6098;DHT22;3077;50.922;6.584;2023-02-28T12:18:23;14.30;3.90
6098;DHT22;3077;50.922;6.584;2023-02-28T12:21:11;14.90;2.90
6098;DHT22;3077;50.922;6.584;2023-02-28T12:23:52;15.20;1.40
6098;DHT22;3077;50.922;6.584;2023-02-28T12:28:58;14.50;1.00
6098;DHT22;3077;50.922;6.584;2023-02-28T12:31:32;14.30;1.00
6098;DHT22;3077;50.922;6.584;2023-02-28T12:34:04;14.50;1.00
6098;DHT22;3077;50.922;6.584;2023-02-28T12:36:33;14.90;1.40
6098;DHT22;3077;50.922;6.584;2023-02-28T12:39:16;15.30;1.00
6098;DHT22;3077;50.922;6.584;2023-02-28T12:41:54;15.30;1.00
6098;DHT22;3077;50.922;6.584;2023-02-28T12:44:27;15.40;1.00
6098;DHT22;3077;50.922;6.584;2023-02-28T12:46:59;15.70;1.00
6098;DHT22;3077;50.922;6.584;2023-02-28T12:49:30;16.30;1.00
6098;DHT22;3077;50.922;6.584;2023-02-28T12:51:58;16.80;1.00
6098;DHT22;3077;50.922;6.584;2023-02-28T12:54:41;16.10;1.00
6098;DHT22;3077;50.922;6.584;2023-02-28T12:59:48;16.30;1.00
6098;DHT22;3077;50.922;6.584;2023-02-28T13:05:21;16.40;1.00
6098;DHT22;3077;50.922;6.584;2023-02-28T13:08:13;16.40;1.00
6098;DHT22;3077;50.922;6.584;2023-02-28T13:10:46;16.30;1.00
6098;DHT22;3077;50.922;6.584;2023-02-28T13:13:18;16.80;1.00
6098;DHT22;3077;50.922;6.584;2023-02-28T13:16:06;17.30;1.00
6098;DHT22;3077;50.922;6.584;2023-02-28T13:18:41;17.70;1.00
6098;DHT22;3077;50.922;6.584;2023-02-28T13:21:10;17.80;1.00
6098;DHT22;3077;50.922;6.584;2023-02-28T13:26:32;18.00;1.00
6098;DHT22;3077;50.922;6.584;2023-02-28T13:34:33;19.20;1.00
6098;DHT22;3077;50.922;6.584;2023-02-28T13:42:35;19.10;1.00
6098;DHT22;3077;50.922;6.584;2023-02-28T13:50:21;19.20;1.00
6098;DHT22;3077;50.922;6.584;2023-02-28T13:58:24;19.60;1.00
6098;DHT22;3077;50.922;6.584;2023-02-28T14:04:49;20.00;1.00
6098;DHT22;3077;50.922;6.584;2023-02-28T14:07:06;20.10;1.00
6098;DHT22;3077;50.922;6.584;2023-02-28T14:09:39;20.10;1.00
6098;DHT22;3077;50.922;6.584;2023-02-28T14:17:55;20.00;1.00
6098;DHT22;3077;50.922;6.584;2023-02-28T14:20:22;20.20;1.00
6098;DHT22;3077;50.922;6.584;2023-02-28T14:26:03;20.50;1.00
6098;DHT22;3077;50.922;6.584;2023-02-28T14:31:45;20.40;1.00
6098;DHT22;3077;50.922;6.584;2023-02-28T14:34:39;19.70;1.00
6098;DHT22;3077;50.922;6.584;2023-02-28T14:37:14;19.50;1.00
6098;DHT22;3077;50.922;6.584;2023-02-28T14:39:42;19.80;1.00
6098;DHT22;3077;50.922;6.584;2023-02-28T14:42:36;20.00;1.00
6098;DHT22;3077;50.922;6.584;2023-02-28T14:45:20;20.30;1.00
6098;DHT22;3077;50.922;6.584;2023-02-28T14:47:46;20.80;1.00
6098;DHT22;3077;50.922;6.584;2023-02-28T14:50:21;21.40;1.00
6098;DHT22;3077;50.922;6.584;2023-02-28T14:52:50;21.50;1.00
6098;DHT22;3077;50.922;6.584;2023-02-28T14:55:19;21.60;1.00
6098;DHT22;3077;50.922;6.584;2023-02-28T14:57:56;21.30;1.00
6098;DHT22;3077;50.922;6.584;2023-02-28T15:00:28;20.80;1.00
6098;DHT22;3077;50.922;6.584;2023-02-28T15:02:56;20.50;1.00
6098;DHT22;3077;50.922;6.584;2023-02-28T15:05:30;20.60;1.00
6098;DHT22;3077;50.922;6.584;2023-02-28T15:08:14;21.00;1.00
6098;DHT22;3077;50.922;6.584;2023-02-28T15:10:59;21.30;1.00
6098;DHT22;3077;50.922;6.584;2023-02-28T15:13:45;21.30;1.00
6098;DHT22;3077;50.922;6.584;2023-02-28T15:21:30;20.40;1.00
6098;DHT22;3077;50.922;6.584;2023-02-28T15:24:00;20.10;1.00
6098;DHT22;3077;50.922;6.584;2023-02-28T15:26:32;19.50;1.00
6098;DHT22;3077;50.922;6.584;2023-02-28T15:29:01;19.70;1.00
6098;DHT22;3077;50.922;6.584;2023-02-28T15:31:37;19.90;1.00
6098;DHT22;3077;50.922;6.584;2023-02-28T15:34:06;20.30;1.00
6098;DHT22;3077;50.922;6.584;2023-02-28T15:36:34;20.60;1.00
6098;DHT22;3077;50.922;6.584;2023-02-28T15:39:16;20.80;1.00
6098;DHT22;3077;50.922;6.584;2023-02-28T15:41:43;20.90;1.00
6098;DHT22;3077;50.922;6.584;2023-02-28T15:44:27;20.80;1.00
6098;DHT22;3077;50.922;6.584;2023-02-28T15:49:21;21.20;1.00
6098;DHT22;3077;50.922;6.584;2023-02-28T15:51:49;21.10;1.00
6098;DHT22;3077;50.922;6.584;2023-02-28T15:54:25;21.10;1.00
6098;DHT22;3077;50.922;6.584;2023-02-28T15:56:55;20.90;1.00
6098;DHT22;3077;50.922;6.584;2023-02-28T15:59:24;20.70;1.00
6098;DHT22;3077;50.922;6.584;2023-02-28T16:05:00;19.90;1.00
6098;DHT22;3077;50.922;6.584;2023-02-28T16:07:27;19.90;1.00
6098;DHT22;3077;50.922;6.584;2023-02-28T16:09:52;19.50;1.00
6098;DHT22;3077;50.922;6.584;2023-02-28T16:12:20;19.50;1.00
6098;DHT22;3077;50.922;6.584;2023-02-28T16:14:49;19.50;1.00
6098;DHT22;3077;50.922;6.584;2023-02-28T16:17:21;19.60;1.00
6098;DHT22;3077;50.922;6.584;2023-02-28T16:19:47;19.80;1.00
6098;DHT22;3077;50.922;6.584;2023-02-28T16:22:13;19.80;1.00
6098;DHT22;3077;50.922;6.584;2023-02-28T16:24:38;19.40;1.00
6098;DHT22;3077;50.922;6.584;2023-02-28T16:27:05;19.00;1.00
6098;DHT22;3077;50.922;6.584;2023-02-28T16:29:34;18.90;1.00
6098;DHT22;3077;50.922;6.584;2023-02-28T16:32:01;18.90;1.00
6098;DHT22;3077;50.922;6.584;2023-02-28T16:34:29;18.60;1.00
6098;DHT22;3077;50.922;6.584;2023-02-28T16:36:54;18.20;1.00
6098;DHT22;3077;50.922;6.584;2023-02-28T16:39:20;17.50;1.00
6098;DHT22;3077;50.922;6.584;2023-02-28T16:41:47;17.20;1.00
6098;DHT22;3077;50.922;6.584;2023-02-28T16:44:40;17.00;1.00
6098;DHT22;3077;50.922;6.584;2023-02-28T16:47:05;16.70;1.00
6098;DHT22;3077;50.922;6.584;2023-02-28T16:49:31;16.50;1.00
6098;DHT22;3077;50.922;6.584;2023-02-28T16:51:57;16.10;1.00
6098;DHT22;3077;50.922;6.584;2023-02-28T16:54:22;15.70;1.00
6098;DHT22;3077;50.922;6.584;2023-02-28T16:56:48;15.40;1.00
6098;DHT22;3077;50.922;6.584;2023-02-28T16:59:18;15.30;1.00
6098;DHT22;3077;50.922;6.584;2023-02-28T17:01:45;14.80;1.00
6098;DHT22;3077;50.922;6.584;2023-02-28T17:04:11;14.30;1.00
6098;DHT22;3077;50.922;6.584;2023-02-28T17:06:38;13.90;1.00
6098;DHT22;3077;50.922;6.584;2023-02-28T17:09:03;13.40;1.00
6098;DHT22;3077;50.922;6.584;2023-02-28T17:11:29;12.70;1.00
6098;DHT22;3077;50.922;6.584;2023-02-28T17:13:55;11.90;1.00
6098;DHT22;3077;50.922;6.584;2023-02-28T17:16:30;11.50;1.00
6098;DHT22;3077;50.922;6.584;2023-02-28T17:19:01;10.10;3.00
6098;DHT22;3077;50.922;6.584;2023-02-28T17:21:27;10.40;1.00
6098;DHT22;3077;50.922;6.584;2023-02-28T17:23:53;10.10;1.00
6098;DHT22;3077;50.922;6.584;2023-02-28T17:26:19;9.90;1.00
6098;DHT22;3077;50.922;6.584;2023-02-28T17:28:47;9.60;1.00
6098;DHT22;3077;50.922;6.584;2023-02-28T17:31:13;9.60;1.00
6098;DHT22;3077;50.922;6.584;2023-02-28T17:33:39;9.30;1.00
6098;DHT22;3077;50.922;6.584;2023-02-28T17:36:06;9.10;1.50
6098;DHT22;3077;50.922;6.584;2023-02-28T17:38:31;8.60;2.70
6098;DHT22;3077;50.922;6.584;2023-02-28T17:40:57;8.50;3.50
6098;DHT22;3077;50.922;6.584;2023-02-28T17:43:26;8.30;4.40
6098;DHT22;3077;50.922;6.584;2023-02-28T17:45:53;8.00;5.20
6098;DHT22;3077;50.922;6.584;2023-02-28T17:48:19;7.90;6.50
6098;DHT22;3077;50.922;6.584;2023-02-28T17:50:44;7.80;7.20
6098;DHT22;3077;50.922;6.584;2023-02-28T17:53:10;7.50;7.70
6098;DHT22;3077;50.922;6.584;2023-02-28T17:55:36;7.30;9.00
6098;DHT22;3077;50.922;6.584;2023-02-28T17:58:02;7.10;10.50
6098;DHT22;3077;50.922;6.584;2023-02-28T18:00:29;7.00;11.80
6098;DHT22;3077;50.922;6.584;2023-02-28T18:02:54;6.90;12.90
6098;DHT22;3077;50.922;6.584;2023-02-28T18:05:20;6.80;14.50
6098;DHT22;3077;50.922;6.584;2023-02-28T18:07:46;6.60;15.80
6098;DHT22;3077;50.922;6.584;2023-02-28T18:10:18;6.50;17.40
6098;DHT22;3077;50.922;6.584;2023-02-28T18:12:48;6.40;19.00
6098;DHT22;3077;50.922;6.584;2023-02-28T18:15:15;6.40;19.90
6098;DHT22;3077;50.922;6.584;2023-02-28T18:17:42;6.40;21.20
6098;DHT22;3077;50.922;6.584;2023-02-28T18:20:09;6.30;22.20
6098;DHT22;3077;50.922;6.584;2023-02-28T18:22:35;6.20;23.50
6098;DHT22;3077;50.922;6.584;2023-02-28T18:25:03;6.10;25.20
6098;DHT22;3077;50.922;6.584;2023-02-28T18:27:28;6.00;26.90
6098;DHT22;3077;50.922;6.584;2023-02-28T18:29:54;5.90;28.00
6098;DHT22;3077;50.922;6.584;2023-02-28T18:32:19;5.90;29.50
6098;DHT22;3077;50.922;6.584;2023-02-28T18:34:45;5.80;30.70